createdAt,value
2018-11-03T05:02:02.584Z,15.43
2018-11-03T05:04:30.737Z,16.73
2018-11-03T05:06:58.901Z,15.53
2018-11-03T05:09:27.049Z,17.60
2018-11-03T05:11:55.237Z,15.70
2018-11-03T05:14:23.386Z,17.70
2018-11-03T05:16:51.561Z,16.67
2018-11-03T05:19:19.711Z,17.53
2018-11-03T05:21:47.878Z,16.97
2018-11-03T05:24:16.033Z,18.13
2018-11-03T05:26:44.194Z,17.77
2018-11-03T05:29:12.368Z,16.43
2018-11-03T05:31:40.524Z,17.60
2018-11-03T05:34:08.896Z,17.30
2018-11-03T05:36:37.070Z,19.03
2018-11-03T05:39:07.942Z,18.07
2018-11-03T05:41:36.062Z,17.87
2018-11-03T05:44:04.209Z,18.37
2018-11-03T05:46:32.497Z,18.20
2018-11-03T05:49:00.545Z,17.00
2018-11-03T05:51:28.692Z,16.97
2018-11-03T05:53:56.834Z,20.13
2018-11-03T05:56:25.030Z,20.53
2018-11-03T05:58:53.312Z,19.67
2018-11-03T06:01:21.592Z,19.83
2018-11-03T06:03:49.738Z,22.13
2018-11-03T06:06:17.924Z,18.47
2018-11-03T06:08:46.332Z,23.07
2018-11-03T06:11:14.914Z,18.90
2018-11-03T06:13:43.373Z,22.50
2018-11-03T06:16:11.615Z,21.07
2018-11-03T06:18:39.797Z,19.23
2018-11-03T06:21:09.656Z,24.90
2018-11-03T06:23:38.043Z,21.23
2018-11-03T06:26:06.914Z,23.53
2018-11-03T06:28:35.161Z,20.40
2018-11-03T06:31:04.124Z,22.47
2018-11-03T06:33:32.381Z,20.43
2018-11-03T06:36:00.558Z,20.20
2018-11-03T06:38:28.758Z,18.70
2018-11-03T06:40:56.966Z,23.20
2018-11-03T06:43:25.160Z,20.47
2018-11-03T06:45:53.333Z,20.23
2018-11-03T06:48:21.523Z,18.57
2018-11-03T06:50:49.795Z,19.73
2018-11-03T06:53:17.947Z,19.03
2018-11-03T06:55:46.192Z,22.43
2018-11-03T06:58:14.364Z,21.10
2018-11-03T07:00:42.542Z,20.57
2018-11-03T07:03:14.118Z,22.73
2018-11-03T07:05:42.309Z,20.63
2018-11-03T07:08:11.189Z,18.60
2018-11-03T07:10:44.008Z,20.27
2018-11-03T07:13:19.045Z,20.13
2018-11-03T07:15:47.213Z,21.77
2018-11-03T07:18:15.418Z,20.87
2018-11-03T07:20:43.622Z,20.43
2018-11-03T07:23:11.781Z,19.47
2018-11-03T07:25:39.939Z,22.73
2018-11-03T07:28:08.102Z,19.10
2018-11-03T07:30:36.337Z,18.70
2018-11-03T07:33:04.567Z,20.77
2018-11-03T07:35:32.729Z,24.50
2018-11-03T07:38:00.901Z,20.63
2018-11-03T07:40:29.070Z,19.63
2018-11-03T07:42:57.217Z,19.57
2018-11-03T07:45:25.371Z,21.20
2018-11-03T07:47:53.646Z,20.07
2018-11-03T07:50:21.799Z,21.23
2018-11-03T07:52:49.969Z,19.63
2018-11-03T07:55:18.162Z,22.10
2018-11-03T07:57:46.327Z,19.63
2018-11-03T08:00:14.499Z,20.23
2018-11-03T08:02:42.683Z,19.53
2018-11-03T08:05:11.833Z,19.47
2018-11-03T08:07:40.061Z,20.33
2018-11-03T08:10:09.513Z,19.97
2018-11-03T08:12:37.752Z,24.17
2018-11-03T08:15:06.827Z,20.27
2018-11-03T08:17:34.988Z,20.17
2018-11-03T08:20:03.158Z,20.37
2018-11-03T08:22:31.321Z,22.53
2018-11-03T08:24:59.499Z,21.07
2018-11-03T08:27:27.797Z,23.10
2018-11-03T08:29:55.994Z,21.57
2018-11-03T08:32:24.185Z,22.70
2018-11-03T08:34:52.391Z,22.73
2018-11-03T08:37:20.553Z,23.30
2018-11-03T08:39:48.885Z,23.10
2018-11-03T08:42:16.924Z,22.83
2018-11-03T08:44:45.095Z,22.80
2018-11-03T08:47:13.277Z,18.90
2018-11-03T08:49:41.455Z,20.93
2018-11-03T08:52:09.605Z,22.83
2018-11-03T08:54:37.782Z,23.00
2018-11-03T08:57:05.934Z,22.50
2018-11-03T08:59:34.209Z,19.80
2018-11-03T09:02:02.280Z,25.17
2018-11-03T09:04:30.465Z,21.33
2018-11-03T09:06:58.629Z,21.63
2018-11-03T09:09:26.859Z,21.90
2018-11-03T09:12:01.690Z,19.13
2018-11-03T09:14:29.883Z,20.47
2018-11-03T09:16:58.037Z,23.20
2018-11-03T09:19:26.209Z,19.63
2018-11-03T09:21:54.432Z,24.50
2018-11-03T09:24:22.655Z,18.57
2018-11-03T09:26:50.784Z,21.40
2018-11-03T09:29:18.940Z,21.83
2018-11-03T09:31:47.166Z,21.00
2018-11-03T09:34:15.306Z,21.03
2018-11-03T09:36:43.487Z,21.00
2018-11-03T09:39:11.758Z,20.47
2018-11-03T09:41:40.213Z,22.73
2018-11-03T09:44:08.372Z,22.10
2018-11-03T09:46:36.545Z,20.70
2018-11-03T09:49:05.265Z,23.80
2018-11-03T09:51:33.437Z,22.23
2018-11-03T09:54:01.927Z,22.87
2018-11-03T09:56:30.157Z,22.07
2018-11-03T09:58:58.369Z,20.50
2018-11-03T10:01:26.550Z,21.40
2018-11-03T10:03:54.705Z,20.37
2018-11-03T10:06:22.943Z,25.23
2018-11-03T10:08:51.069Z,21.43
2018-11-03T10:11:19.234Z,21.30
2018-11-03T10:13:47.409Z,18.97
2018-11-03T10:16:15.772Z,22.37
2018-11-03T10:18:43.941Z,21.97
2018-11-03T10:21:12.147Z,20.47
2018-11-03T10:23:40.269Z,21.57
2018-11-03T10:26:08.510Z,22.10
2018-11-03T10:28:36.665Z,21.27
2018-11-03T10:31:04.951Z,23.40
2018-11-03T10:33:33.125Z,22.40
2018-11-03T10:36:01.289Z,22.23
2018-11-03T10:38:29.458Z,21.00
2018-11-03T10:40:57.646Z,26.67
2018-11-03T10:43:25.863Z,23.83
2018-11-03T10:45:54.024Z,22.27
2018-11-03T10:48:22.201Z,20.67
2018-11-03T10:50:50.370Z,23.03
2018-11-03T10:53:18.528Z,23.33
2018-11-03T10:55:46.686Z,21.17
2018-11-03T10:58:14.841Z,23.80
2018-11-03T11:00:48.447Z,23.60
2018-11-03T11:03:22.166Z,22.70
2018-11-03T11:05:55.809Z,22.90
2018-11-03T11:08:29.691Z,23.30
2018-11-03T11:11:03.510Z,23.07
2018-11-03T11:13:33.298Z,22.57
2018-11-03T11:16:01.555Z,24.13
2018-11-03T11:18:29.700Z,23.93
2018-11-03T11:20:57.888Z,21.70
2018-11-03T11:23:26.113Z,24.63
2018-11-03T11:25:54.326Z,21.73
2018-11-03T11:28:22.546Z,23.33
2018-11-03T11:30:50.805Z,22.87
2018-11-03T11:33:19.164Z,24.03
2018-11-03T11:35:47.324Z,22.30
2018-11-03T11:38:15.820Z,24.33
2018-11-03T11:40:44.337Z,22.10
2018-11-03T11:43:14.558Z,23.47
2018-11-03T11:45:42.615Z,26.40
2018-11-03T11:48:11.017Z,26.40
2018-11-03T11:50:39.658Z,25.73
2018-11-03T11:53:08.038Z,26.67
2018-11-03T11:55:37.497Z,22.77
2018-11-03T11:58:06.854Z,22.63
2018-11-03T12:00:35.168Z,22.70
2018-11-03T12:03:03.294Z,24.83
2018-11-03T12:05:31.469Z,24.50
2018-11-03T12:07:59.794Z,24.73
2018-11-03T12:10:28.020Z,24.47
2018-11-03T12:12:56.196Z,23.90
2018-11-03T12:15:24.675Z,24.40
2018-11-03T12:17:52.893Z,24.77
2018-11-03T12:20:21.049Z,25.83
2018-11-03T12:22:49.249Z,23.80
2018-11-03T12:25:17.448Z,22.87
2018-11-03T12:27:45.674Z,24.83
2018-11-03T12:30:15.030Z,25.57
2018-11-03T12:32:43.232Z,25.87
2018-11-03T12:35:11.687Z,26.00
2018-11-03T12:37:40.358Z,24.23
2018-11-03T12:40:10.692Z,26.90
2018-11-03T12:42:38.897Z,24.07
2018-11-03T12:45:08.694Z,24.93
2018-11-03T12:47:36.933Z,26.97
2018-11-03T12:50:06.459Z,29.87
2018-11-03T12:52:34.734Z,28.47
2018-11-03T12:55:03.014Z,26.40
2018-11-03T12:57:31.188Z,25.17
2018-11-03T12:59:59.388Z,25.23
2018-11-03T13:02:27.623Z,27.40
2018-11-03T13:04:55.974Z,27.23
2018-11-03T13:07:24.213Z,28.07
2018-11-03T13:09:52.442Z,32.70
2018-11-03T13:12:20.710Z,32.17
2018-11-03T13:14:48.821Z,28.53
2018-11-03T13:17:17.105Z,24.80
2018-11-03T13:19:45.272Z,27.70
2018-11-03T13:22:13.399Z,27.43
2018-11-03T13:24:41.599Z,27.90
2018-11-03T13:27:09.772Z,30.73
2018-11-03T13:29:37.972Z,31.77
2018-11-03T13:32:06.217Z,32.27
2018-11-03T13:34:34.701Z,28.27
2018-11-03T13:37:03.065Z,29.20
2018-11-03T13:39:31.196Z,28.93
2018-11-03T13:41:59.485Z,28.43
2018-11-03T13:44:28.249Z,32.33
2018-11-03T13:46:56.369Z,29.93
2018-11-03T13:49:24.633Z,29.83
2018-11-03T13:51:52.850Z,31.60
2018-11-03T13:54:21.024Z,30.40
2018-11-03T13:56:49.222Z,28.60
2018-11-03T13:59:17.380Z,31.53
2018-11-03T14:01:45.541Z,29.00
2018-11-03T14:04:14.565Z,35.50
2018-11-03T14:06:43.123Z,28.97
2018-11-03T14:09:11.700Z,32.77
2018-11-03T14:11:39.912Z,31.10
2018-11-03T14:14:08.117Z,29.57
2018-11-03T14:16:36.340Z,31.57
2018-11-03T14:19:04.822Z,30.23
2018-11-03T14:21:33.025Z,33.27
2018-11-03T14:24:01.197Z,29.93
2018-11-03T14:26:29.383Z,29.40
2018-11-03T14:28:58.216Z,31.00
2018-11-03T14:31:26.339Z,31.23
2018-11-03T14:33:54.556Z,30.20
2018-11-03T14:36:23.669Z,32.03
2018-11-03T14:38:51.808Z,29.70
2018-11-03T14:41:20.007Z,30.63
2018-11-03T14:43:48.155Z,30.43
2018-11-03T14:46:16.296Z,29.70
2018-11-03T14:48:44.623Z,31.97
2018-11-03T14:51:12.755Z,27.37
2018-11-03T14:53:40.917Z,29.97
2018-11-03T14:56:09.207Z,28.27
2018-11-03T14:58:37.414Z,28.37
2018-11-03T15:01:05.558Z,29.10
2018-11-03T15:03:33.945Z,26.30
2018-11-03T15:06:02.168Z,26.13
2018-11-03T15:08:30.329Z,29.20
2018-11-03T15:10:58.589Z,24.93
2018-11-03T15:13:26.807Z,27.23
2018-11-03T15:15:54.985Z,22.57
2018-11-03T15:18:23.158Z,24.17
2018-11-03T15:20:51.277Z,22.53
2018-11-03T15:23:19.518Z,25.37
2018-11-03T15:25:47.924Z,25.67
2018-11-03T15:28:16.156Z,23.87
2018-11-03T15:30:44.398Z,24.20
2018-11-03T15:33:12.674Z,26.03
2018-11-03T15:35:40.844Z,24.13
2018-11-03T15:38:09.068Z,25.00
2018-11-03T15:40:37.261Z,23.37
2018-11-03T15:43:05.526Z,23.30
2018-11-03T15:45:33.998Z,23.20
2018-11-03T15:48:02.365Z,24.87
2018-11-03T15:50:30.516Z,23.37
2018-11-03T15:52:58.718Z,28.37
2018-11-03T15:55:27.033Z,28.37
2018-11-03T15:57:55.437Z,23.93
2018-11-03T16:00:24.307Z,23.10
2018-11-03T16:02:52.483Z,26.03
2018-11-03T16:05:20.704Z,23.93
2018-11-03T16:07:48.972Z,25.03
2018-11-03T16:10:17.192Z,23.00
2018-11-03T16:12:45.522Z,24.43
2018-11-03T16:15:13.966Z,24.60
2018-11-03T16:17:43.015Z,24.03
2018-11-03T16:20:12.223Z,23.37
2018-11-03T16:22:40.687Z,22.80
2018-11-03T16:25:09.308Z,20.87
2018-11-03T16:27:37.881Z,19.60
2018-11-03T16:30:08.541Z,20.37
2018-11-03T16:32:36.879Z,18.77
2018-11-03T16:35:05.398Z,20.83
2018-11-03T16:37:33.600Z,22.03
2018-11-03T16:40:01.753Z,21.37
2018-11-03T16:42:29.924Z,31.20
2018-11-03T16:44:58.109Z,29.30
2018-11-03T16:47:26.360Z,25.77
2018-11-03T16:49:54.742Z,31.20
2018-11-03T16:52:22.998Z,38.37
2018-11-03T16:54:51.238Z,26.70
2018-11-03T16:57:19.381Z,25.27
2018-11-03T16:59:47.567Z,21.47
2018-11-03T17:02:15.817Z,19.97
2018-11-03T17:04:44.025Z,23.43
2018-11-03T17:07:12.216Z,23.50
2018-11-03T17:09:40.361Z,25.50
2018-11-03T17:12:08.523Z,25.27
2018-11-03T17:14:36.713Z,23.10
2018-11-03T17:17:04.937Z,22.30
2018-11-03T17:19:33.090Z,24.17
2018-11-03T17:22:01.291Z,23.10
2018-11-03T17:24:29.510Z,22.43
2018-11-03T17:26:57.816Z,22.00
2018-11-03T17:29:26.044Z,23.93
2018-11-03T17:31:54.619Z,23.53
2018-11-03T17:34:23.014Z,24.00
2018-11-03T17:36:51.294Z,24.40
2018-11-03T17:39:19.470Z,23.00
2018-11-03T17:41:47.618Z,22.53
2018-11-03T17:44:16.695Z,25.93
2018-11-03T17:46:44.858Z,21.77
2018-11-03T17:49:13.307Z,24.53
2018-11-03T17:51:41.565Z,26.70
2018-11-03T17:54:09.745Z,22.90
2018-11-03T17:56:37.893Z,23.07
2018-11-03T17:59:06.343Z,24.07
2018-11-03T18:01:35.422Z,26.57
2018-11-03T18:04:03.774Z,24.50
2018-11-03T18:06:31.945Z,23.87
2018-11-03T18:09:00.697Z,24.87
2018-11-03T18:11:28.860Z,24.07
2018-11-03T18:13:57.101Z,25.00
2018-11-03T18:16:25.260Z,26.03
2018-11-03T18:18:53.630Z,24.10
2018-11-03T18:21:21.877Z,25.73
2018-11-03T18:23:50.025Z,24.83
2018-11-03T18:26:18.270Z,22.37
2018-11-03T18:28:46.437Z,26.27
2018-11-03T18:31:14.589Z,25.07
2018-11-03T18:33:42.791Z,23.00
2018-11-03T18:36:11.167Z,23.77
2018-11-03T18:38:39.449Z,21.63
2018-11-03T18:41:07.594Z,23.93
2018-11-03T18:43:36.001Z,24.67
2018-11-03T18:46:04.226Z,25.67
2018-11-03T18:48:32.384Z,23.70
2018-11-03T18:51:00.570Z,26.80
2018-11-03T18:53:28.743Z,22.20
2018-11-03T18:55:56.886Z,23.83
2018-11-03T18:58:25.059Z,23.50
2018-11-03T19:00:53.252Z,23.93
2018-11-03T19:03:21.445Z,23.10
2018-11-03T19:05:49.856Z,24.13
2018-11-03T19:08:17.988Z,24.17
2018-11-03T19:10:46.132Z,20.37
2018-11-03T19:13:14.433Z,22.67
2018-11-03T19:15:42.929Z,23.70
2018-11-03T19:18:11.151Z,22.13
2018-11-03T19:20:39.338Z,28.73
2018-11-03T19:23:07.511Z,21.10
2018-11-03T19:25:35.654Z,22.77
2018-11-03T19:28:04.102Z,21.53
2018-11-03T19:30:32.690Z,20.33
2018-11-03T19:33:01.385Z,26.37
2018-11-03T19:35:29.599Z,26.00
2018-11-03T19:37:57.745Z,24.33
2018-11-03T19:40:25.986Z,22.20
2018-11-03T19:42:54.128Z,20.73
2018-11-03T19:45:22.355Z,24.07
2018-11-03T19:47:50.534Z,22.47
2018-11-03T19:50:18.912Z,23.93
2018-11-03T19:52:47.049Z,21.07
2018-11-03T19:55:15.223Z,21.23
2018-11-03T19:57:43.437Z,21.67
2018-11-03T20:00:13.645Z,22.20
2018-11-03T20:02:41.849Z,25.07
2018-11-03T20:05:10.843Z,22.27
2018-11-03T20:07:39.089Z,20.63
2018-11-03T20:10:07.324Z,23.03
2018-11-03T20:12:35.442Z,23.53
2018-11-03T20:15:03.769Z,22.70
2018-11-03T20:17:31.919Z,22.73
2018-11-03T20:20:00.084Z,22.63
2018-11-03T20:22:28.240Z,23.00
2018-11-03T20:24:56.480Z,25.33
2018-11-03T20:27:24.658Z,22.30
2018-11-03T20:29:52.817Z,22.90
2018-11-03T20:32:20.991Z,23.00
2018-11-03T20:34:49.205Z,19.63
2018-11-03T20:37:17.353Z,21.77
2018-11-03T20:39:45.625Z,20.83
2018-11-03T20:42:13.790Z,23.07
2018-11-03T20:44:41.986Z,19.53
2018-11-03T20:47:10.157Z,21.90
2018-11-03T20:49:38.309Z,22.70
2018-11-03T20:52:06.727Z,21.37
2018-11-03T20:54:35.025Z,21.97
2018-11-03T20:59:37.825Z,22.60
2018-11-03T21:02:06.077Z,24.03
2018-11-03T21:04:34.183Z,22.50
2018-11-03T21:07:02.332Z,22.53
2018-11-03T21:09:30.502Z,23.07
2018-11-03T21:11:58.649Z,22.73
2018-11-03T21:14:26.930Z,23.60
2018-11-03T21:16:55.176Z,19.63
2018-11-03T21:19:23.313Z,23.03
2018-11-03T21:21:51.436Z,24.30
2018-11-03T21:24:19.672Z,24.67
2018-11-03T21:26:47.749Z,22.27
2018-11-03T21:29:15.876Z,22.50
2018-11-03T21:31:44.072Z,20.87
2018-11-03T21:34:12.289Z,25.47
2018-11-03T21:36:40.434Z,25.80
2018-11-03T21:39:09.709Z,23.80
2018-11-03T21:41:37.854Z,24.37
2018-11-03T21:44:06.015Z,20.83
2018-11-03T21:46:34.221Z,25.50
2018-11-03T21:49:02.331Z,22.60
2018-11-03T21:51:30.654Z,24.23
2018-11-03T21:53:58.803Z,22.10
2018-11-03T21:56:26.941Z,24.90
2018-11-03T21:58:55.064Z,23.10
